sensor_id;sensor_type;location;lat;lon;timestamp;P1;durP1;ratioP1;P2;durP2;ratioP2
76749;SDS011;66447;35.844;14.468;2023-08-20T00:03:51;14.03;;;10.87;;
76749;SDS011;66447;35.844;14.468;2023-08-20T00:18:53;8.97;;;8.10;;
76749;SDS011;66447;35.844;14.468;2023-08-20T00:33:54;9.17;;;7.70;;
76749;SDS011;66447;35.844;14.468;2023-08-20T00:48:55;9.60;;;8.53;;
76749;SDS011;66447;35.844;14.468;2023-08-20T01:03:56;8.90;;;8.00;;
76749;SDS011;66447;35.844;14.468;2023-08-20T01:18:57;9.85;;;8.85;;
76749;SDS011;66447;35.844;14.468;2023-08-20T01:33:58;11.48;;;10.32;;
76749;SDS011;66447;35.844;14.468;2023-08-20T01:49:00;11.40;;;10.40;;
76749;SDS011;66447;35.844;14.468;2023-08-20T02:04:01;12.95;;;11.63;;
76749;SDS011;66447;35.844;14.468;2023-08-20T02:19:02;12.40;;;11.20;;
76749;SDS011;66447;35.844;14.468;2023-08-20T02:34:05;14.40;;;13.10;;
76749;SDS011;66447;35.844;14.468;2023-08-20T02:49:06;16.15;;;14.65;;
76749;SDS011;66447;35.844;14.468;2023-08-20T03:04:07;16.45;;;14.52;;
76749;SDS011;66447;35.844;14.468;2023-08-20T03:19:08;14.52;;;13.15;;
76749;SDS011;66447;35.844;14.468;2023-08-20T03:34:10;15.07;;;13.67;;
76749;SDS011;66447;35.844;14.468;2023-08-20T03:49:11;15.82;;;14.35;;
76749;SDS011;66447;35.844;14.468;2023-08-20T04:04:12;14.02;;;12.52;;
76749;SDS011;66447;35.844;14.468;2023-08-20T04:19:12;15.63;;;14.10;;
76749;SDS011;66447;35.844;14.468;2023-08-20T04:34:13;24.42;;;21.73;;
76749;SDS011;66447;35.844;14.468;2023-08-20T04:49:15;23.40;;;20.93;;
76749;SDS011;66447;35.844;14.468;2023-08-20T05:04:16;19.20;;;16.87;;
76749;SDS011;66447;35.844;14.468;2023-08-20T05:19:16;15.75;;;14.10;;
76749;SDS011;66447;35.844;14.468;2023-08-20T05:34:17;14.48;;;12.90;;
76749;SDS011;66447;35.844;14.468;2023-08-20T05:49:18;17.00;;;12.90;;
76749;SDS011;66447;35.844;14.468;2023-08-20T06:04:19;17.35;;;15.52;;
76749;SDS011;66447;35.844;14.468;2023-08-20T06:19:20;18.30;;;16.63;;
76749;SDS011;66447;35.844;14.468;2023-08-20T06:34:21;12.35;;;11.13;;
76749;SDS011;66447;35.844;14.468;2023-08-20T06:49:21;13.02;;;11.65;;
76749;SDS011;66447;35.844;14.468;2023-08-20T07:04:22;13.23;;;9.45;;
76749;SDS011;66447;35.844;14.468;2023-08-20T07:19:24;10.70;;;8.80;;
76749;SDS011;66447;35.844;14.468;2023-08-20T07:34:29;8.73;;;7.25;;
76749;SDS011;66447;35.844;14.468;2023-08-20T07:49:30;7.13;;;6.43;;
76749;SDS011;66447;35.844;14.468;2023-08-20T08:04:32;8.20;;;5.93;;
76749;SDS011;66447;35.844;14.468;2023-08-20T08:19:33;8.83;;;6.93;;
76749;SDS011;66447;35.844;14.468;2023-08-20T08:34:34;9.30;;;7.25;;
76749;SDS011;66447;35.844;14.468;2023-08-20T08:49:35;10.93;;;7.90;;
76749;SDS011;66447;35.844;14.468;2023-08-20T09:04:40;10.10;;;7.90;;
76749;SDS011;66447;35.844;14.468;2023-08-20T09:19:42;9.07;;;8.17;;
76749;SDS011;66447;35.844;14.468;2023-08-20T09:34:50;7.73;;;7.00;;
76749;SDS011;66447;35.844;14.468;2023-08-20T09:49:51;7.97;;;6.50;;
76749;SDS011;66447;35.844;14.468;2023-08-20T10:04:54;7.57;;;6.83;;
76749;SDS011;66447;35.844;14.468;2023-08-20T10:19:57;9.70;;;5.97;;
76749;SDS011;66447;35.844;14.468;2023-08-20T10:34:59;7.67;;;6.43;;
76749;SDS011;66447;35.844;14.468;2023-08-20T10:50:00;9.97;;;5.83;;
76749;SDS011;66447;35.844;14.468;2023-08-20T11:05:09;11.60;;;5.50;;
76749;SDS011;66447;35.844;14.468;2023-08-20T11:20:21;6.87;;;6.17;;
76749;SDS011;66447;35.844;14.468;2023-08-20T11:35:22;6.47;;;5.85;;
76749;SDS011;66447;35.844;14.468;2023-08-20T11:50:23;12.27;;;6.53;;
76749;SDS011;66447;35.844;14.468;2023-08-20T12:05:27;8.73;;;6.53;;
76749;SDS011;66447;35.844;14.468;2023-08-20T12:20:28;8.27;;;7.00;;
76749;SDS011;66447;35.844;14.468;2023-08-20T12:35:33;7.37;;;6.67;;
76749;SDS011;66447;35.844;14.468;2023-08-20T12:50:34;7.95;;;7.18;;
76749;SDS011;66447;35.844;14.468;2023-08-20T13:05:35;7.70;;;6.87;;
76749;SDS011;66447;35.844;14.468;2023-08-20T13:20:36;9.27;;;7.43;;
76749;SDS011;66447;35.844;14.468;2023-08-20T13:35:38;9.30;;;7.23;;
76749;SDS011;66447;35.844;14.468;2023-08-20T13:50:38;10.15;;;7.95;;
76749;SDS011;66447;35.844;14.468;2023-08-20T14:05:39;8.00;;;7.22;;
76749;SDS011;66447;35.844;14.468;2023-08-20T14:20:40;7.90;;;7.10;;
76749;SDS011;66447;35.844;14.468;2023-08-20T14:35:41;9.80;;;6.83;;
76749;SDS011;66447;35.844;14.468;2023-08-20T14:50:42;8.45;;;6.40;;
76749;SDS011;66447;35.844;14.468;2023-08-20T15:05:44;7.83;;;6.67;;
76749;SDS011;66447;35.844;14.468;2023-08-20T15:20:45;10.67;;;7.20;;
76749;SDS011;66447;35.844;14.468;2023-08-20T15:35:46;7.67;;;6.80;;
76749;SDS011;66447;35.844;14.468;2023-08-20T15:50:47;11.73;;;6.90;;
76749;SDS011;66447;35.844;14.468;2023-08-20T16:05:50;9.27;;;7.70;;
76749;SDS011;66447;35.844;14.468;2023-08-20T16:20:51;8.02;;;7.25;;
76749;SDS011;66447;35.844;14.468;2023-08-20T16:35:52;7.35;;;6.50;;
76749;SDS011;66447;35.844;14.468;2023-08-20T16:50:53;9.02;;;7.43;;
76749;SDS011;66447;35.844;14.468;2023-08-20T17:06:03;15.77;;;7.60;;
76749;SDS011;66447;35.844;14.468;2023-08-20T17:21:04;13.93;;;10.57;;
76749;SDS011;66447;35.844;14.468;2023-08-20T17:36:05;14.80;;;11.80;;
76749;SDS011;66447;35.844;14.468;2023-08-20T17:51:06;14.37;;;12.87;;
76749;SDS011;66447;35.844;14.468;2023-08-20T18:06:07;14.63;;;12.63;;
76749;SDS011;66447;35.844;14.468;2023-08-20T18:21:08;15.48;;;14.07;;
76749;SDS011;66447;35.844;14.468;2023-08-20T18:36:08;13.85;;;12.43;;
76749;SDS011;66447;35.844;14.468;2023-08-20T18:51:09;15.33;;;13.40;;
76749;SDS011;66447;35.844;14.468;2023-08-20T19:06:10;21.27;;;17.90;;
76749;SDS011;66447;35.844;14.468;2023-08-20T19:21:11;17.23;;;15.53;;
76749;SDS011;66447;35.844;14.468;2023-08-20T19:36:12;18.37;;;16.47;;
76749;SDS011;66447;35.844;14.468;2023-08-20T19:51:14;20.83;;;18.33;;
76749;SDS011;66447;35.844;14.468;2023-08-20T20:06:14;17.52;;;15.82;;
76749;SDS011;66447;35.844;14.468;2023-08-20T20:21:15;17.50;;;15.73;;
76749;SDS011;66447;35.844;14.468;2023-08-20T20:36:16;21.23;;;19.33;;
76749;SDS011;66447;35.844;14.468;2023-08-20T20:51:17;21.87;;;19.63;;
76749;SDS011;66447;35.844;14.468;2023-08-20T21:06:18;25.15;;;22.65;;
76749;SDS011;66447;35.844;14.468;2023-08-20T21:21:19;24.65;;;22.33;;
76749;SDS011;66447;35.844;14.468;2023-08-20T21:36:20;22.73;;;20.20;;
76749;SDS011;66447;35.844;14.468;2023-08-20T21:51:21;23.43;;;21.13;;
76749;SDS011;66447;35.844;14.468;2023-08-20T22:06:23;23.47;;;21.13;;
76749;SDS011;66447;35.844;14.468;2023-08-20T22:21:24;30.80;;;27.77;;
76749;SDS011;66447;35.844;14.468;2023-08-20T22:36:24;37.28;;;33.38;;
76749;SDS011;66447;35.844;14.468;2023-08-20T22:51:25;36.58;;;32.30;;
76749;SDS011;66447;35.844;14.468;2023-08-20T23:06:26;34.40;;;30.77;;
76749;SDS011;66447;35.844;14.468;2023-08-20T23:21:27;40.38;;;35.85;;
76749;SDS011;66447;35.844;14.468;2023-08-20T23:36:28;32.43;;;27.70;;
76749;SDS011;66447;35.844;14.468;2023-08-20T23:51:31;46.03;;;40.90;;
